Hauptseite
METAR-TAF:

METAR-TAF

Flughäfen :

Wattisham, England

Breite: 52-07N, Länge: 000-58E, Höhe: 87 m

Beobachtung

Neuester Wetterbericht von vor 55 Minuten, um 17:50 UTC
Wind 2 kt aus Nordost
Temperatur 7°C
Luftfeuchtigkeit 76%
Luftdruck 1021 hPa
Sichtweite 10 km oder mehr
Leicht bewölkt in der Höhe von 3000 ft

METAR: EGUW 181750Z 04002KT 9999 FEW030 07/03 Q1021 BLU NOSIG

Zeit: 18:45 (18:45 UTC)

Prognose

Neuester Wetterbericht von vor 1 Stunde und 59 Minuten, um 16:46 UTC
Gültige Prognose vom 18 um 18 UTC bis 19 um 01 UTC
Wind 6 kt aus West/Südwest
Sichtweite 10 km oder mehr
Leicht bewölkt in der Höhe von 3000 ft
Wahrscheinlichkeit 30% :
Zeitweise
vom 18 um 18 UTC bis 18 um 21 UTC
Sichtweite: 7000 m
Regenschauer

TAF: EGUW 181646Z 1818/1901 25006KT 9999 FEW030 PROB30 TEMPO 1818/1821 7000 SHRA

Wetterbeobachtungen und Prognosen von mehr als 4000 Flughäfen (METAR und TAF Bericht).

Die verfügbaren Stationen werden durch gelbe und rote Markierungen auf der Karte dargestellt.

Führen Sie die Maus auf sie, um den Namen der Station zu sehen.

Darauf klicken, um die Beobachtung von Wetterbeobachtungen und Prognosen zu sehen.

Um die Karte zu ändern : klicken Sie auf den grünen Tasten mit einem schwarzen Kreuz Zum Vergrößern, auf den grünen Button mit einem Gedankenstrich zu verkleinern, oder auf die grünen Pfeile für benachbarte Karten.


METAR-TAF: